Terminal Aerodrome Forecast
Issued by NWS Rapid City, SD

Home | Current Version | Previous Version | Graphics & Text | Print | Product List | Glossary On
Versions: 1 2 3 4 5 6 7 8 9 10 11 12 13 14 15 16 17 18 19
000
FTUS43 KUNR 142100 AAA
TAFRAP
TAF AMD
KRAP 142151Z 1422/1518 15008KT P6SM OVC040
     FM150000 08006KT P6SM BKN200
     FM150600 VRB04KT P6SM SKC
     FM151700 17008KT P6SM FEW250=

USA.gov is the U.S. government's official web portal to all federal, state and local government web resources and services.